الصفحة الرئيسية
METAR-TAF:

METAR-TAF

مطار :

مطار كوناكري الدولي

كوناكري, غينيا

دائرة عرض: 09-34N, خط طول: 013-37W, ارتفاع: 26 متر

مراقبة الطقس الحالي

تاريخ ووقت الإصدار 2ساعات و 13 دقيقة قبل الساعة 21:00UTC
ريح 6 عقدة من الغرب/الشمال الغربي
درجة الحرارة 27°درجة مئوية
الرطوبة 74%
ضغط 1011 hPa
الرؤية: 5000 متر
العجاج

METAR: GUCY 232100Z 30006KT 5000 HZ NSC 27/22 Q1011 NOSIG

زمن: 23:13 (23:13 UTC)

توقعات

تاريخ ووقت الإصدار 30ساعات و 13 دقيقة قبل الساعة 17:00UTC
التوقعات صالحة من21 الساعة 18 UTC إلى 22 الساعة 24 UTC
ريح 6 عقدة من الشمال الغربي
الرؤية: 5000 متر
غيوم قليلة على ارتفاع 1500 قدم
غيوم متفرقة على ارتفاع 11000 قدم
العجاج
نظرية الاحتمالات 30% :
مؤقت
من 21 الساعة 24 UTC إلى 22 الساعة 07 UTC
ريح 2 عقدةمن اتجاهات متغيرة
الرؤية: 2000 متر
غيوم قليلة على ارتفاع 1500 قدم
غيوم مفككة على ارتفاع 11000 قدم
غشاء

TAF: GUCY 211700Z 2118/2224 32006KT 5000 HZ FEW015 SCT110 PROB30 TEMPO 2124/2207 VRB02KT 2000 BR FEW015 BKN110

أرصاد الطقس والتوقعات من أكثر من 4000 مطار (تقارير الطقس للمطار METAR والتنبؤ بالطقس بالمطارTAF).

المحطات المتاحة هي النقط الصفراء والحمراء على الخريطة.

حرك المؤشر فوق النقطة لمعرفة اسم المحطة.

ثم انقر لمعرفة أرصاد وتوقعات الطقس.

لتغيير الخارطة: اضغط على الأزرار الخضراء مع رمز الصليب الأسود للتكبير. على الزر الأخضر مع شرطة للتصغير، أو على الأسهم الخضراء للخرائط المجاورة.


METAR-TAF: